Terminal Aerodrome Forecast
Issued by NWS

Home | Current Version | Previous Version | Text Only | Print | Product List | Glossary On
Versions: 1 2 3 4 5 6 7 8 9 10 11 12 13 14
154
FTUS42 KTBW 272340 CCA
TAFLAL
TAF COR
KLAL 272340Z 2800/2824 09008KT P6SM BKN080
     FM280300 VRB04KT P6SM SCT100
     FM280900 VRB03KT P6SM SCT010 SCT100
     FM281400 07006KT P6SM SCT020 SCT100
     FM281700 05006KT P6SM BKN035
      AMD NOT SKED 2802/2811=

USA.gov is the U.S. government's official web portal to all federal, state and local government web resources and services.